sensor_id;sensor_type;location;lat;lon;timestamp;P1;durP1;ratioP1;P2;durP2;ratioP2
1380;SDS011;684;48.342;10.096;2023-03-23T00:02:01;6.30;;;3.53;;
1380;SDS011;684;48.342;10.096;2023-03-23T00:04:29;6.57;;;3.40;;
1380;SDS011;684;48.342;10.096;2023-03-23T00:06:56;7.83;;;3.93;;
1380;SDS011;684;48.342;10.096;2023-03-23T00:09:27;6.80;;;3.20;;
1380;SDS011;684;48.342;10.096;2023-03-23T00:11:55;8.10;;;4.00;;
1380;SDS011;684;48.342;10.096;2023-03-23T00:14:30;7.53;;;3.77;;
1380;SDS011;684;48.342;10.096;2023-03-23T00:17:06;7.67;;;3.90;;
1380;SDS011;684;48.342;10.096;2023-03-23T00:19:34;8.90;;;4.50;;
1380;SDS011;684;48.342;10.096;2023-03-23T00:22:10;7.00;;;4.03;;
1380;SDS011;684;48.342;10.096;2023-03-23T00:24:39;6.97;;;3.90;;
1380;SDS011;684;48.342;10.096;2023-03-23T00:27:06;8.90;;;4.73;;
1380;SDS011;684;48.342;10.096;2023-03-23T00:29:34;6.53;;;3.90;;
1380;SDS011;684;48.342;10.096;2023-03-23T00:32:00;6.73;;;3.27;;
1380;SDS011;684;48.342;10.096;2023-03-23T00:34:27;8.10;;;4.23;;
1380;SDS011;684;48.342;10.096;2023-03-23T00:36:58;8.30;;;4.03;;
1380;SDS011;684;48.342;10.096;2023-03-23T00:39:26;8.77;;;4.50;;
1380;SDS011;684;48.342;10.096;2023-03-23T00:41:55;7.10;;;3.93;;
1380;SDS011;684;48.342;10.096;2023-03-23T00:44:25;8.73;;;4.43;;
1380;SDS011;684;48.342;10.096;2023-03-23T00:46:53;8.30;;;5.10;;
1380;SDS011;684;48.342;10.096;2023-03-23T00:49:21;8.00;;;3.93;;
1380;SDS011;684;48.342;10.096;2023-03-23T00:51:50;9.53;;;4.40;;
1380;SDS011;684;48.342;10.096;2023-03-23T00:54:17;11.87;;;5.03;;
1380;SDS011;684;48.342;10.096;2023-03-23T00:56:44;8.43;;;4.63;;
1380;SDS011;684;48.342;10.096;2023-03-23T00:59:13;8.17;;;4.87;;
1380;SDS011;684;48.342;10.096;2023-03-23T01:01:40;8.10;;;4.63;;
1380;SDS011;684;48.342;10.096;2023-03-23T01:04:07;7.40;;;4.73;;
1380;SDS011;684;48.342;10.096;2023-03-23T01:06:37;8.90;;;5.10;;
1380;SDS011;684;48.342;10.096;2023-03-23T01:09:05;8.20;;;4.90;;
1380;SDS011;684;48.342;10.096;2023-03-23T01:11:33;10.10;;;4.87;;
1380;SDS011;684;48.342;10.096;2023-03-23T01:14:00;11.90;;;5.37;;
1380;SDS011;684;48.342;10.096;2023-03-23T01:16:28;9.90;;;4.83;;
1380;SDS011;684;48.342;10.096;2023-03-23T01:18:55;9.30;;;5.00;;
1380;SDS011;684;48.342;10.096;2023-03-23T01:21:22;9.83;;;5.57;;
1380;SDS011;684;48.342;10.096;2023-03-23T01:23:49;9.90;;;6.47;;
1380;SDS011;684;48.342;10.096;2023-03-23T01:26:18;8.90;;;5.17;;
1380;SDS011;684;48.342;10.096;2023-03-23T01:28:46;9.50;;;4.60;;
1380;SDS011;684;48.342;10.096;2023-03-23T01:31:14;10.10;;;4.97;;
1380;SDS011;684;48.342;10.096;2023-03-23T01:33:43;8.60;;;4.83;;
1380;SDS011;684;48.342;10.096;2023-03-23T01:36:12;7.70;;;4.60;;
1380;SDS011;684;48.342;10.096;2023-03-23T01:38:40;10.23;;;5.50;;
1380;SDS011;684;48.342;10.096;2023-03-23T01:41:08;8.63;;;4.63;;
1380;SDS011;684;48.342;10.096;2023-03-23T01:43:34;13.53;;;5.77;;
1380;SDS011;684;48.342;10.096;2023-03-23T01:46:02;8.50;;;4.80;;
1380;SDS011;684;48.342;10.096;2023-03-23T01:48:29;9.17;;;5.07;;
1380;SDS011;684;48.342;10.096;2023-03-23T01:51:01;9.73;;;5.93;;
1380;SDS011;684;48.342;10.096;2023-03-23T01:53:33;11.03;;;5.27;;
1380;SDS011;684;48.342;10.096;2023-03-23T01:56:04;8.60;;;5.60;;
1380;SDS011;684;48.342;10.096;2023-03-23T01:58:33;9.57;;;5.93;;
1380;SDS011;684;48.342;10.096;2023-03-23T02:01:03;10.00;;;5.83;;
1380;SDS011;684;48.342;10.096;2023-03-23T02:03:32;9.50;;;5.50;;
1380;SDS011;684;48.342;10.096;2023-03-23T02:06:05;12.27;;;5.67;;
1380;SDS011;684;48.342;10.096;2023-03-23T02:08:32;9.30;;;5.90;;
1380;SDS011;684;48.342;10.096;2023-03-23T02:11:00;8.50;;;5.47;;
1380;SDS011;684;48.342;10.096;2023-03-23T02:13:27;10.40;;;6.03;;
1380;SDS011;684;48.342;10.096;2023-03-23T02:15:58;9.67;;;5.90;;
1380;SDS011;684;48.342;10.096;2023-03-23T02:18:38;9.77;;;5.87;;
1380;SDS011;684;48.342;10.096;2023-03-23T02:24:21;9.77;;;6.67;;
1380;SDS011;684;48.342;10.096;2023-03-23T02:26:58;8.40;;;5.60;;
1380;SDS011;684;48.342;10.096;2023-03-23T02:29:44;10.83;;;6.30;;
1380;SDS011;684;48.342;10.096;2023-03-23T02:32:31;8.43;;;5.67;;
1380;SDS011;684;48.342;10.096;2023-03-23T02:35:32;12.00;;;6.60;;
1380;SDS011;684;48.342;10.096;2023-03-23T02:38:02;9.57;;;6.30;;
1380;SDS011;684;48.342;10.096;2023-03-23T02:40:33;9.00;;;6.10;;
1380;SDS011;684;48.342;10.096;2023-03-23T02:43:06;11.83;;;6.93;;
1380;SDS011;684;48.342;10.096;2023-03-23T02:45:35;11.37;;;6.53;;
1380;SDS011;684;48.342;10.096;2023-03-23T02:48:04;10.10;;;6.33;;
1380;SDS011;684;48.342;10.096;2023-03-23T02:50:33;10.10;;;5.60;;
1380;SDS011;684;48.342;10.096;2023-03-23T02:53:03;9.23;;;6.00;;
1380;SDS011;684;48.342;10.096;2023-03-23T02:55:34;10.73;;;6.13;;
1380;SDS011;684;48.342;10.096;2023-03-23T02:58:05;9.20;;;5.87;;
1380;SDS011;684;48.342;10.096;2023-03-23T03:00:32;10.00;;;5.50;;
1380;SDS011;684;48.342;10.096;2023-03-23T03:02:59;8.67;;;5.67;;
1380;SDS011;684;48.342;10.096;2023-03-23T03:05:30;10.67;;;6.37;;
1380;SDS011;684;48.342;10.096;2023-03-23T03:08:10;10.53;;;5.80;;
1380;SDS011;684;48.342;10.096;2023-03-23T03:10:46;9.40;;;6.13;;
1380;SDS011;684;48.342;10.096;2023-03-23T03:13:19;11.90;;;6.27;;
1380;SDS011;684;48.342;10.096;2023-03-23T03:15:57;8.80;;;5.43;;
1380;SDS011;684;48.342;10.096;2023-03-23T03:18:31;8.73;;;5.70;;
1380;SDS011;684;48.342;10.096;2023-03-23T03:21:06;10.53;;;6.43;;
1380;SDS011;684;48.342;10.096;2023-03-23T03:23:38;10.13;;;5.73;;
1380;SDS011;684;48.342;10.096;2023-03-23T03:26:06;10.70;;;6.33;;
1380;SDS011;684;48.342;10.096;2023-03-23T03:28:35;9.63;;;6.20;;
1380;SDS011;684;48.342;10.096;2023-03-23T03:31:02;10.60;;;5.90;;
1380;SDS011;684;48.342;10.096;2023-03-23T03:33:31;8.20;;;4.47;;
1380;SDS011;684;48.342;10.096;2023-03-23T03:35:59;8.90;;;5.50;;
1380;SDS011;684;48.342;10.096;2023-03-23T03:38:39;10.93;;;5.67;;
1380;SDS011;684;48.342;10.096;2023-03-23T03:41:07;11.43;;;6.10;;
1380;SDS011;684;48.342;10.096;2023-03-23T03:43:34;9.00;;;5.80;;
1380;SDS011;684;48.342;10.096;2023-03-23T03:46:01;10.43;;;6.43;;
1380;SDS011;684;48.342;10.096;2023-03-23T03:48:28;9.50;;;6.50;;
1380;SDS011;684;48.342;10.096;2023-03-23T03:50:54;10.87;;;6.30;;
1380;SDS011;684;48.342;10.096;2023-03-23T03:53:21;9.83;;;5.93;;
1380;SDS011;684;48.342;10.096;2023-03-23T03:55:49;11.70;;;5.63;;
1380;SDS011;684;48.342;10.096;2023-03-23T03:58:20;8.47;;;5.27;;
1380;SDS011;684;48.342;10.096;2023-03-23T04:00:47;12.10;;;6.77;;
1380;SDS011;684;48.342;10.096;2023-03-23T04:03:14;8.23;;;5.93;;
1380;SDS011;684;48.342;10.096;2023-03-23T04:05:41;8.37;;;5.10;;
1380;SDS011;684;48.342;10.096;2023-03-23T04:08:09;9.23;;;5.07;;
1380;SDS011;684;48.342;10.096;2023-03-23T04:10:36;10.40;;;4.87;;
1380;SDS011;684;48.342;10.096;2023-03-23T04:13:05;8.23;;;4.47;;
1380;SDS011;684;48.342;10.096;2023-03-23T04:15:32;7.50;;;4.30;;
1380;SDS011;684;48.342;10.096;2023-03-23T04:17:59;8.90;;;4.87;;
1380;SDS011;684;48.342;10.096;2023-03-23T04:20:26;7.70;;;4.57;;
1380;SDS011;684;48.342;10.096;2023-03-23T04:22:52;7.20;;;3.93;;
1380;SDS011;684;48.342;10.096;2023-03-23T04:25:20;8.70;;;4.13;;
1380;SDS011;684;48.342;10.096;2023-03-23T04:27:47;8.30;;;4.77;;
1380;SDS011;684;48.342;10.096;2023-03-23T04:30:18;10.10;;;5.40;;
1380;SDS011;684;48.342;10.096;2023-03-23T04:32:46;8.27;;;4.73;;
1380;SDS011;684;48.342;10.096;2023-03-23T04:35:15;9.30;;;4.93;;
1380;SDS011;684;48.342;10.096;2023-03-23T04:37:43;7.63;;;3.87;;
1380;SDS011;684;48.342;10.096;2023-03-23T04:40:10;8.03;;;4.30;;
1380;SDS011;684;48.342;10.096;2023-03-23T04:42:39;8.60;;;4.50;;
1380;SDS011;684;48.342;10.096;2023-03-23T04:45:10;18.97;;;5.47;;
1380;SDS011;684;48.342;10.096;2023-03-23T04:47:41;7.33;;;4.13;;
1380;SDS011;684;48.342;10.096;2023-03-23T04:50:18;7.70;;;4.40;;
1380;SDS011;684;48.342;10.096;2023-03-23T04:52:49;6.40;;;3.60;;
1380;SDS011;684;48.342;10.096;2023-03-23T04:55:16;10.83;;;4.43;;
1380;SDS011;684;48.342;10.096;2023-03-23T04:57:44;7.80;;;4.50;;
1380;SDS011;684;48.342;10.096;2023-03-23T05:00:11;7.63;;;4.10;;
1380;SDS011;684;48.342;10.096;2023-03-23T05:02:42;6.97;;;3.23;;
1380;SDS011;684;48.342;10.096;2023-03-23T05:05:11;7.60;;;3.97;;
1380;SDS011;684;48.342;10.096;2023-03-23T05:07:40;6.97;;;3.43;;
1380;SDS011;684;48.342;10.096;2023-03-23T05:10:08;6.70;;;3.50;;
1380;SDS011;684;48.342;10.096;2023-03-23T05:12:37;8.90;;;4.70;;
1380;SDS011;684;48.342;10.096;2023-03-23T05:15:04;8.10;;;3.83;;
1380;SDS011;684;48.342;10.096;2023-03-23T05:17:32;7.13;;;3.80;;
1380;SDS011;684;48.342;10.096;2023-03-23T05:20:01;6.90;;;3.50;;
1380;SDS011;684;48.342;10.096;2023-03-23T05:22:30;7.87;;;3.60;;
1380;SDS011;684;48.342;10.096;2023-03-23T05:24:57;9.03;;;3.63;;
1380;SDS011;684;48.342;10.096;2023-03-23T05:27:24;6.73;;;3.53;;
1380;SDS011;684;48.342;10.096;2023-03-23T05:29:53;11.77;;;4.40;;
1380;SDS011;684;48.342;10.096;2023-03-23T05:32:19;6.63;;;3.63;;
1380;SDS011;684;48.342;10.096;2023-03-23T05:34:54;8.10;;;4.20;;
1380;SDS011;684;48.342;10.096;2023-03-23T05:37:23;8.30;;;3.37;;
1380;SDS011;684;48.342;10.096;2023-03-23T05:39:51;7.00;;;3.80;;
1380;SDS011;684;48.342;10.096;2023-03-23T05:42:20;7.43;;;3.70;;
1380;SDS011;684;48.342;10.096;2023-03-23T05:44:47;6.90;;;3.90;;
1380;SDS011;684;48.342;10.096;2023-03-23T05:47:14;7.60;;;3.80;;
1380;SDS011;684;48.342;10.096;2023-03-23T05:49:41;8.10;;;3.50;;
1380;SDS011;684;48.342;10.096;2023-03-23T05:52:08;9.93;;;4.03;;
1380;SDS011;684;48.342;10.096;2023-03-23T05:54:37;13.87;;;5.00;;
1380;SDS011;684;48.342;10.096;2023-03-23T05:57:03;9.17;;;4.50;;
1380;SDS011;684;48.342;10.096;2023-03-23T05:59:30;8.80;;;4.70;;
1380;SDS011;684;48.342;10.096;2023-03-23T06:01:58;8.40;;;4.70;;
1380;SDS011;684;48.342;10.096;2023-03-23T06:04:25;7.43;;;4.50;;
1380;SDS011;684;48.342;10.096;2023-03-23T06:06:52;9.23;;;4.57;;
1380;SDS011;684;48.342;10.096;2023-03-23T06:09:19;11.10;;;5.30;;
1380;SDS011;684;48.342;10.096;2023-03-23T06:11:47;10.53;;;4.27;;
1380;SDS011;684;48.342;10.096;2023-03-23T06:14:14;8.17;;;4.77;;
1380;SDS011;684;48.342;10.096;2023-03-23T06:16:41;10.27;;;4.77;;
1380;SDS011;684;48.342;10.096;2023-03-23T06:19:08;9.20;;;5.60;;
1380;SDS011;684;48.342;10.096;2023-03-23T06:21:36;9.97;;;5.53;;
1380;SDS011;684;48.342;10.096;2023-03-23T06:24:03;9.70;;;4.87;;
1380;SDS011;684;48.342;10.096;2023-03-23T06:26:31;10.73;;;6.33;;
1380;SDS011;684;48.342;10.096;2023-03-23T06:29:01;10.73;;;6.60;;
1380;SDS011;684;48.342;10.096;2023-03-23T06:31:28;8.90;;;5.73;;
1380;SDS011;684;48.342;10.096;2023-03-23T06:33:56;12.03;;;6.80;;
1380;SDS011;684;48.342;10.096;2023-03-23T06:36:22;11.53;;;6.23;;
1380;SDS011;684;48.342;10.096;2023-03-23T06:38:51;11.63;;;5.37;;
1380;SDS011;684;48.342;10.096;2023-03-23T06:41:18;10.70;;;6.13;;
1380;SDS011;684;48.342;10.096;2023-03-23T06:43:45;12.17;;;5.57;;
1380;SDS011;684;48.342;10.096;2023-03-23T06:46:13;8.43;;;5.30;;
1380;SDS011;684;48.342;10.096;2023-03-23T06:48:40;9.93;;;5.47;;
1380;SDS011;684;48.342;10.096;2023-03-23T06:51:07;10.53;;;6.53;;
1380;SDS011;684;48.342;10.096;2023-03-23T06:53:34;11.23;;;5.97;;
1380;SDS011;684;48.342;10.096;2023-03-23T06:56:01;8.93;;;5.67;;
1380;SDS011;684;48.342;10.096;2023-03-23T06:58:28;7.90;;;4.83;;
1380;SDS011;684;48.342;10.096;2023-03-23T07:00:54;7.60;;;5.20;;
1380;SDS011;684;48.342;10.096;2023-03-23T07:03:24;9.50;;;5.40;;
1380;SDS011;684;48.342;10.096;2023-03-23T07:05:52;10.43;;;5.27;;
1380;SDS011;684;48.342;10.096;2023-03-23T07:08:19;8.80;;;5.17;;
1380;SDS011;684;48.342;10.096;2023-03-23T07:10:46;9.50;;;5.77;;
1380;SDS011;684;48.342;10.096;2023-03-23T07:13:15;8.67;;;5.13;;
1380;SDS011;684;48.342;10.096;2023-03-23T07:15:41;9.77;;;5.00;;
1380;SDS011;684;48.342;10.096;2023-03-23T07:18:09;12.43;;;5.20;;
1380;SDS011;684;48.342;10.096;2023-03-23T07:20:37;8.50;;;5.30;;
1380;SDS011;684;48.342;10.096;2023-03-23T07:23:04;7.43;;;4.93;;
1380;SDS011;684;48.342;10.096;2023-03-23T07:25:31;7.50;;;5.10;;
1380;SDS011;684;48.342;10.096;2023-03-23T07:27:58;8.83;;;5.00;;
1380;SDS011;684;48.342;10.096;2023-03-23T07:30:25;9.43;;;5.63;;
1380;SDS011;684;48.342;10.096;2023-03-23T07:32:54;8.77;;;5.13;;
1380;SDS011;684;48.342;10.096;2023-03-23T07:35:21;7.50;;;4.80;;
1380;SDS011;684;48.342;10.096;2023-03-23T07:37:49;11.13;;;5.03;;
1380;SDS011;684;48.342;10.096;2023-03-23T07:40:17;11.10;;;5.10;;
1380;SDS011;684;48.342;10.096;2023-03-23T07:42:46;7.97;;;4.80;;
1380;SDS011;684;48.342;10.096;2023-03-23T07:45:17;7.83;;;4.40;;
1380;SDS011;684;48.342;10.096;2023-03-23T07:47:44;7.07;;;4.57;;
1380;SDS011;684;48.342;10.096;2023-03-23T07:50:11;12.67;;;4.20;;
1380;SDS011;684;48.342;10.096;2023-03-23T07:52:38;11.20;;;4.63;;
1380;SDS011;684;48.342;10.096;2023-03-23T07:55:08;8.53;;;4.30;;
1380;SDS011;684;48.342;10.096;2023-03-23T07:57:42;10.13;;;4.80;;
1380;SDS011;684;48.342;10.096;2023-03-23T08:00:10;8.47;;;4.03;;
1380;SDS011;684;48.342;10.096;2023-03-23T08:02:41;7.43;;;3.87;;
1380;SDS011;684;48.342;10.096;2023-03-23T08:05:08;8.87;;;4.37;;
1380;SDS011;684;48.342;10.096;2023-03-23T08:07:35;7.27;;;4.13;;
1380;SDS011;684;48.342;10.096;2023-03-23T08:10:02;7.43;;;3.60;;
1380;SDS011;684;48.342;10.096;2023-03-23T08:12:31;8.90;;;4.17;;
1380;SDS011;684;48.342;10.096;2023-03-23T08:14:57;7.37;;;3.93;;
1380;SDS011;684;48.342;10.096;2023-03-23T08:17:24;7.80;;;4.33;;
1380;SDS011;684;48.342;10.096;2023-03-23T08:19:51;8.30;;;4.27;;
1380;SDS011;684;48.342;10.096;2023-03-23T08:22:18;8.40;;;4.00;;
1380;SDS011;684;48.342;10.096;2023-03-23T08:24:46;7.27;;;3.73;;
1380;SDS011;684;48.342;10.096;2023-03-23T08:27:12;9.30;;;3.47;;
1380;SDS011;684;48.342;10.096;2023-03-23T08:29:40;12.57;;;4.40;;
1380;SDS011;684;48.342;10.096;2023-03-23T08:32:09;5.90;;;3.77;;
1380;SDS011;684;48.342;10.096;2023-03-23T08:34:36;7.83;;;4.30;;
1380;SDS011;684;48.342;10.096;2023-03-23T08:37:03;9.00;;;4.37;;
1380;SDS011;684;48.342;10.096;2023-03-23T08:39:31;11.63;;;4.93;;
1380;SDS011;684;48.342;10.096;2023-03-23T08:41:58;6.33;;;3.93;;
1380;SDS011;684;48.342;10.096;2023-03-23T08:44:25;11.70;;;4.47;;
1380;SDS011;684;48.342;10.096;2023-03-23T08:46:53;8.30;;;4.30;;
1380;SDS011;684;48.342;10.096;2023-03-23T08:49:22;8.60;;;4.10;;
1380;SDS011;684;48.342;10.096;2023-03-23T08:51:48;8.27;;;4.40;;
1380;SDS011;684;48.342;10.096;2023-03-23T08:54:15;9.00;;;4.37;;
1380;SDS011;684;48.342;10.096;2023-03-23T08:56:43;10.50;;;4.17;;
1380;SDS011;684;48.342;10.096;2023-03-23T08:59:09;6.77;;;3.80;;
1380;SDS011;684;48.342;10.096;2023-03-23T09:01:36;6.30;;;3.60;;
1380;SDS011;684;48.342;10.096;2023-03-23T09:04:05;7.07;;;3.33;;
1380;SDS011;684;48.342;10.096;2023-03-23T09:06:31;6.20;;;3.20;;
1380;SDS011;684;48.342;10.096;2023-03-23T09:08:59;6.33;;;3.80;;
1380;SDS011;684;48.342;10.096;2023-03-23T09:11:30;6.43;;;3.10;;
1380;SDS011;684;48.342;10.096;2023-03-23T09:13:57;6.63;;;3.83;;
1380;SDS011;684;48.342;10.096;2023-03-23T09:16:23;7.53;;;3.80;;
1380;SDS011;684;48.342;10.096;2023-03-23T09:18:51;6.30;;;3.23;;
1380;SDS011;684;48.342;10.096;2023-03-23T09:21:19;8.20;;;3.50;;
1380;SDS011;684;48.342;10.096;2023-03-23T09:23:47;6.47;;;3.67;;
1380;SDS011;684;48.342;10.096;2023-03-23T09:26:13;7.30;;;3.57;;
1380;SDS011;684;48.342;10.096;2023-03-23T09:28:40;6.77;;;4.00;;
1380;SDS011;684;48.342;10.096;2023-03-23T09:31:09;7.10;;;3.50;;
1380;SDS011;684;48.342;10.096;2023-03-23T09:33:37;8.70;;;3.80;;
1380;SDS011;684;48.342;10.096;2023-03-23T09:36:04;9.13;;;3.57;;
1380;SDS011;684;48.342;10.096;2023-03-23T09:38:34;8.73;;;3.50;;
1380;SDS011;684;48.342;10.096;2023-03-23T09:41:03;6.63;;;3.30;;
1380;SDS011;684;48.342;10.096;2023-03-23T09:43:45;6.23;;;3.50;;
1380;SDS011;684;48.342;10.096;2023-03-23T09:46:22;7.30;;;2.97;;
1380;SDS011;684;48.342;10.096;2023-03-23T09:49:09;7.50;;;2.90;;
1380;SDS011;684;48.342;10.096;2023-03-23T09:51:40;6.70;;;3.27;;
1380;SDS011;684;48.342;10.096;2023-03-23T09:54:12;5.50;;;2.60;;
1380;SDS011;684;48.342;10.096;2023-03-23T09:56:45;7.30;;;2.93;;
1380;SDS011;684;48.342;10.096;2023-03-23T09:59:14;6.00;;;2.50;;
1380;SDS011;684;48.342;10.096;2023-03-23T10:01:45;11.70;;;4.70;;
1380;SDS011;684;48.342;10.096;2023-03-23T10:04:17;7.60;;;3.10;;
1380;SDS011;684;48.342;10.096;2023-03-23T10:06:51;8.47;;;3.50;;
1380;SDS011;684;48.342;10.096;2023-03-23T10:09:20;5.23;;;2.97;;
1380;SDS011;684;48.342;10.096;2023-03-23T10:11:50;6.70;;;3.30;;
1380;SDS011;684;48.342;10.096;2023-03-23T10:14:28;6.27;;;2.73;;
1380;SDS011;684;48.342;10.096;2023-03-23T10:17:13;7.77;;;2.90;;
1380;SDS011;684;48.342;10.096;2023-03-23T10:19:42;5.80;;;3.13;;
1380;SDS011;684;48.342;10.096;2023-03-23T10:22:15;6.70;;;2.87;;
1380;SDS011;684;48.342;10.096;2023-03-23T10:24:49;6.20;;;3.13;;
1380;SDS011;684;48.342;10.096;2023-03-23T10:27:23;6.07;;;2.67;;
1380;SDS011;684;48.342;10.096;2023-03-23T10:29:57;9.03;;;2.70;;
1380;SDS011;684;48.342;10.096;2023-03-23T10:32:39;7.23;;;2.83;;
1380;SDS011;684;48.342;10.096;2023-03-23T10:35:10;8.63;;;2.60;;
1380;SDS011;684;48.342;10.096;2023-03-23T10:37:42;6.93;;;3.30;;
1380;SDS011;684;48.342;10.096;2023-03-23T10:40:13;6.07;;;3.10;;
1380;SDS011;684;48.342;10.096;2023-03-23T10:42:44;12.73;;;3.70;;
1380;SDS011;684;48.342;10.096;2023-03-23T10:45:14;10.70;;;3.67;;
1380;SDS011;684;48.342;10.096;2023-03-23T10:47:46;5.53;;;3.03;;
1380;SDS011;684;48.342;10.096;2023-03-23T10:50:18;8.53;;;3.13;;
1380;SDS011;684;48.342;10.096;2023-03-23T10:52:50;6.10;;;3.30;;
1380;SDS011;684;48.342;10.096;2023-03-23T10:55:20;5.47;;;2.70;;
1380;SDS011;684;48.342;10.096;2023-03-23T10:57:58;5.80;;;2.67;;
1380;SDS011;684;48.342;10.096;2023-03-23T11:00:26;6.80;;;3.17;;
1380;SDS011;684;48.342;10.096;2023-03-23T11:02:57;6.53;;;3.07;;
1380;SDS011;684;48.342;10.096;2023-03-23T11:05:27;5.40;;;2.60;;
1380;SDS011;684;48.342;10.096;2023-03-23T11:08:01;6.27;;;2.63;;
1380;SDS011;684;48.342;10.096;2023-03-23T11:10:34;7.20;;;2.37;;
1380;SDS011;684;48.342;10.096;2023-03-23T11:13:03;6.73;;;2.40;;
1380;SDS011;684;48.342;10.096;2023-03-23T11:15:35;4.73;;;2.20;;
1380;SDS011;684;48.342;10.096;2023-03-23T11:18:05;7.17;;;2.33;;
1380;SDS011;684;48.342;10.096;2023-03-23T11:20:37;9.60;;;3.77;;
1380;SDS011;684;48.342;10.096;2023-03-23T11:23:17;6.47;;;2.43;;
1380;SDS011;684;48.342;10.096;2023-03-23T11:25:53;5.80;;;2.83;;
1380;SDS011;684;48.342;10.096;2023-03-23T11:28:25;6.20;;;2.30;;
1380;SDS011;684;48.342;10.096;2023-03-23T11:30:55;6.70;;;2.10;;
1380;SDS011;684;48.342;10.096;2023-03-23T11:33:24;6.00;;;2.33;;
1380;SDS011;684;48.342;10.096;2023-03-23T11:35:54;6.13;;;2.60;;
1380;SDS011;684;48.342;10.096;2023-03-23T11:38:22;5.03;;;1.97;;
1380;SDS011;684;48.342;10.096;2023-03-23T11:40:54;5.10;;;2.60;;
1380;SDS011;684;48.342;10.096;2023-03-23T11:43:21;4.83;;;2.20;;
1380;SDS011;684;48.342;10.096;2023-03-23T11:45:52;5.40;;;2.10;;
1380;SDS011;684;48.342;10.096;2023-03-23T11:48:26;5.30;;;2.33;;
1380;SDS011;684;48.342;10.096;2023-03-23T11:51:08;5.03;;;2.07;;
1380;SDS011;684;48.342;10.096;2023-03-23T11:53:42;5.10;;;2.13;;
1380;SDS011;684;48.342;10.096;2023-03-23T11:56:17;5.00;;;1.70;;
1380;SDS011;684;48.342;10.096;2023-03-23T11:58:49;5.07;;;1.90;;
1380;SDS011;684;48.342;10.096;2023-03-23T12:01:20;5.37;;;2.30;;
1380;SDS011;684;48.342;10.096;2023-03-23T12:04:02;6.23;;;2.47;;
1380;SDS011;684;48.342;10.096;2023-03-23T12:06:42;6.43;;;2.43;;
1380;SDS011;684;48.342;10.096;2023-03-23T12:09:31;4.70;;;2.13;;
1380;SDS011;684;48.342;10.096;2023-03-23T12:12:10;6.70;;;2.50;;
1380;SDS011;684;48.342;10.096;2023-03-23T12:14:43;5.90;;;2.70;;
1380;SDS011;684;48.342;10.096;2023-03-23T12:17:19;5.37;;;2.43;;
1380;SDS011;684;48.342;10.096;2023-03-23T12:19:56;6.00;;;2.33;;
1380;SDS011;684;48.342;10.096;2023-03-23T12:22:38;5.20;;;2.50;;
1380;SDS011;684;48.342;10.096;2023-03-23T12:25:15;4.63;;;2.20;;
1380;SDS011;684;48.342;10.096;2023-03-23T12:28:00;6.30;;;2.20;;
1380;SDS011;684;48.342;10.096;2023-03-23T12:30:34;6.73;;;2.47;;
1380;SDS011;684;48.342;10.096;2023-03-23T12:35:59;5.70;;;2.73;;
1380;SDS011;684;48.342;10.096;2023-03-23T12:39:00;6.30;;;2.73;;
1380;SDS011;684;48.342;10.096;2023-03-23T12:41:45;5.63;;;2.67;;
1380;SDS011;684;48.342;10.096;2023-03-23T12:44:17;7.10;;;2.63;;
1380;SDS011;684;48.342;10.096;2023-03-23T12:49:42;5.10;;;2.40;;
1380;SDS011;684;48.342;10.096;2023-03-23T12:52:13;6.07;;;2.70;;
1380;SDS011;684;48.342;10.096;2023-03-23T12:54:46;5.73;;;2.70;;
1380;SDS011;684;48.342;10.096;2023-03-23T12:57:20;7.10;;;2.47;;
1380;SDS011;684;48.342;10.096;2023-03-23T12:59:54;5.10;;;2.43;;
1380;SDS011;684;48.342;10.096;2023-03-23T13:02:31;4.60;;;2.23;;
1380;SDS011;684;48.342;10.096;2023-03-23T13:05:02;6.90;;;2.50;;
1380;SDS011;684;48.342;10.096;2023-03-23T13:07:34;5.50;;;2.50;;
1380;SDS011;684;48.342;10.096;2023-03-23T13:10:07;5.70;;;2.20;;
1380;SDS011;684;48.342;10.096;2023-03-23T13:12:41;7.30;;;2.50;;
1380;SDS011;684;48.342;10.096;2023-03-23T13:15:15;5.90;;;3.30;;
1380;SDS011;684;48.342;10.096;2023-03-23T13:17:51;6.13;;;2.40;;
1380;SDS011;684;48.342;10.096;2023-03-23T13:20:27;4.97;;;2.37;;
1380;SDS011;684;48.342;10.096;2023-03-23T13:23:08;6.20;;;2.27;;
1380;SDS011;684;48.342;10.096;2023-03-23T13:25:43;7.63;;;2.50;;
1380;SDS011;684;48.342;10.096;2023-03-23T13:28:17;6.33;;;2.33;;
1380;SDS011;684;48.342;10.096;2023-03-23T13:30:55;7.67;;;2.60;;
1380;SDS011;684;48.342;10.096;2023-03-23T13:33:30;6.40;;;2.77;;
1380;SDS011;684;48.342;10.096;2023-03-23T13:36:03;5.40;;;2.00;;
1380;SDS011;684;48.342;10.096;2023-03-23T13:38:34;6.13;;;2.63;;
1380;SDS011;684;48.342;10.096;2023-03-23T13:41:06;7.60;;;3.00;;
1380;SDS011;684;48.342;10.096;2023-03-23T13:43:36;5.70;;;2.70;;
1380;SDS011;684;48.342;10.096;2023-03-23T13:46:13;6.60;;;2.50;;
1380;SDS011;684;48.342;10.096;2023-03-23T13:49:02;6.97;;;3.00;;
1380;SDS011;684;48.342;10.096;2023-03-23T13:51:51;6.47;;;2.60;;
1380;SDS011;684;48.342;10.096;2023-03-23T13:54:25;12.50;;;4.17;;
1380;SDS011;684;48.342;10.096;2023-03-23T13:56:57;6.70;;;3.27;;
1380;SDS011;684;48.342;10.096;2023-03-23T13:59:30;5.50;;;2.67;;
1380;SDS011;684;48.342;10.096;2023-03-23T14:05:08;6.63;;;3.10;;
1380;SDS011;684;48.342;10.096;2023-03-23T14:07:55;7.10;;;3.73;;
1380;SDS011;684;48.342;10.096;2023-03-23T14:10:24;8.70;;;3.30;;
1380;SDS011;684;48.342;10.096;2023-03-23T14:12:57;7.70;;;4.70;;
1380;SDS011;684;48.342;10.096;2023-03-23T14:15:27;7.87;;;4.20;;
1380;SDS011;684;48.342;10.096;2023-03-23T14:17:56;6.50;;;3.30;;
1380;SDS011;684;48.342;10.096;2023-03-23T14:20:25;7.07;;;4.43;;
1380;SDS011;684;48.342;10.096;2023-03-23T14:23:00;7.07;;;2.97;;
1380;SDS011;684;48.342;10.096;2023-03-23T14:25:28;8.17;;;3.80;;
1380;SDS011;684;48.342;10.096;2023-03-23T14:27:56;7.40;;;3.63;;
1380;SDS011;684;48.342;10.096;2023-03-23T14:30:25;6.47;;;2.83;;
1380;SDS011;684;48.342;10.096;2023-03-23T14:33:04;4.70;;;2.20;;
1380;SDS011;684;48.342;10.096;2023-03-23T14:35:34;5.70;;;2.50;;
1380;SDS011;684;48.342;10.096;2023-03-23T14:38:02;7.60;;;2.90;;
1380;SDS011;684;48.342;10.096;2023-03-23T14:40:30;5.37;;;2.60;;
1380;SDS011;684;48.342;10.096;2023-03-23T14:42:57;5.30;;;2.23;;
1380;SDS011;684;48.342;10.096;2023-03-23T14:45:25;5.83;;;2.60;;
1380;SDS011;684;48.342;10.096;2023-03-23T14:47:53;6.70;;;3.83;;
1380;SDS011;684;48.342;10.096;2023-03-23T14:50:25;6.27;;;3.00;;
1380;SDS011;684;48.342;10.096;2023-03-23T14:52:56;6.13;;;2.93;;
1380;SDS011;684;48.342;10.096;2023-03-23T14:55:26;7.00;;;2.80;;
1380;SDS011;684;48.342;10.096;2023-03-23T14:57:56;5.30;;;2.57;;
1380;SDS011;684;48.342;10.096;2023-03-23T15:00:33;7.13;;;2.70;;
1380;SDS011;684;48.342;10.096;2023-03-23T15:03:02;6.77;;;2.50;;
1380;SDS011;684;48.342;10.096;2023-03-23T15:05:35;5.93;;;2.70;;
1380;SDS011;684;48.342;10.096;2023-03-23T15:08:05;8.17;;;2.37;;
1380;SDS011;684;48.342;10.096;2023-03-23T15:10:34;7.87;;;2.67;;
1380;SDS011;684;48.342;10.096;2023-03-23T15:13:00;5.47;;;2.50;;
1380;SDS011;684;48.342;10.096;2023-03-23T15:15:28;7.90;;;2.47;;
1380;SDS011;684;48.342;10.096;2023-03-23T15:17:56;5.40;;;2.60;;
1380;SDS011;684;48.342;10.096;2023-03-23T15:20:26;4.50;;;1.87;;
1380;SDS011;684;48.342;10.096;2023-03-23T15:22:56;5.70;;;2.60;;
1380;SDS011;684;48.342;10.096;2023-03-23T15:25:31;6.40;;;2.60;;
1380;SDS011;684;48.342;10.096;2023-03-23T15:28:06;6.87;;;2.50;;
1380;SDS011;684;48.342;10.096;2023-03-23T15:30:45;6.10;;;2.30;;
1380;SDS011;684;48.342;10.096;2023-03-23T15:33:14;6.73;;;3.10;;
1380;SDS011;684;48.342;10.096;2023-03-23T15:35:44;6.63;;;2.57;;
1380;SDS011;684;48.342;10.096;2023-03-23T15:38:17;6.53;;;3.03;;
1380;SDS011;684;48.342;10.096;2023-03-23T15:40:48;7.77;;;3.70;;
1380;SDS011;684;48.342;10.096;2023-03-23T15:43:16;6.90;;;2.50;;
1380;SDS011;684;48.342;10.096;2023-03-23T15:45:52;6.77;;;2.77;;